createdAt,value
2023-05-09T00:01:57.135Z,7.50
2023-05-09T00:06:08.227Z,7.64
2023-05-09T00:10:37.405Z,7.67
2023-05-09T00:14:48.194Z,7.61
2023-05-09T00:19:17.182Z,7.45
2023-05-09T00:23:26.465Z,7.26
2023-05-09T00:27:17.517Z,7.17
2023-05-09T00:31:26.413Z,7.13
2023-05-09T00:35:55.456Z,7.27
2023-05-09T00:40:04.775Z,7.26
2023-05-09T00:44:33.585Z,7.19
2023-05-09T00:48:34.799Z,7.19
2023-05-09T00:52:43.970Z,7.10
2023-05-09T00:56:52.872Z,6.94
2023-05-09T01:01:01.642Z,6.95
2023-05-09T01:05:12.870Z,7.02
2023-05-09T01:09:23.116Z,6.93
2023-05-09T01:13:36.713Z,6.83
2023-05-09T01:17:54.892Z,6.74
2023-05-09T01:22:08.103Z,6.70
2023-05-09T01:26:38.290Z,6.48
2023-05-09T01:30:43.164Z,6.41
2023-05-09T01:35:14.165Z,6.40
2023-05-09T01:39:42.925Z,6.31
2023-05-09T01:43:59.893Z,6.40
2023-05-09T01:48:29.226Z,6.45
2023-05-09T01:52:58.067Z,6.36
2023-05-09T01:56:48.290Z,6.44
2023-05-09T02:00:57.385Z,6.60
2023-05-09T02:05:06.834Z,6.50
2023-05-09T02:09:16.027Z,6.45
2023-05-09T02:13:25.062Z,6.41
2023-05-09T02:17:34.272Z,6.48
2023-05-09T02:21:30.833Z,6.39
2023-05-09T02:25:59.707Z,6.17
2023-05-09T02:30:24.979Z,6.04
2023-05-09T02:34:53.868Z,6.06
2023-05-09T02:39:23.329Z,6.27
2023-05-09T02:43:47.840Z,6.32
2023-05-09T02:48:16.967Z,6.23
2023-05-09T02:52:41.057Z,6.29
2023-05-09T02:56:49.946Z,6.31
2023-05-09T03:00:59.146Z,6.23
2023-05-09T03:05:27.927Z,6.20
2023-05-09T03:09:54.899Z,6.19
2023-05-09T03:14:07.692Z,6.10
2023-05-09T03:18:17.354Z,6.06
2023-05-09T03:22:27.050Z,6.21
2023-05-09T03:26:44.145Z,6.56
2023-05-09T03:31:13.198Z,7.44
2023-05-09T03:35:42.108Z,8.03
2023-05-09T03:39:54.864Z,8.82
2023-05-09T03:43:44.202Z,9.11
2023-05-09T03:48:13.002Z,8.85
2023-05-09T03:52:41.953Z,8.12
2023-05-09T03:57:10.551Z,7.79
2023-05-09T04:01:40.287Z,7.61
2023-05-09T04:05:50.577Z,7.44
2023-05-09T04:10:00.965Z,7.37
2023-05-09T04:14:19.613Z,7.39
2023-05-09T04:18:50.045Z,7.43
2023-05-09T04:23:22.157Z,7.65
2023-05-09T04:27:32.394Z,7.79
2023-05-09T04:31:46.113Z,8.02
2023-05-09T04:36:14.775Z,8.42
2023-05-09T04:40:44.497Z,8.77
2023-05-09T04:45:04.754Z,8.96
2023-05-09T04:49:33.738Z,9.06
2023-05-09T04:53:45.188Z,9.34
2023-05-09T04:58:14.833Z,9.50
2023-05-09T05:02:24.166Z,9.82
2023-05-09T05:06:53.927Z,10.14
2023-05-09T05:11:23.522Z,10.41
2023-05-09T05:15:52.981Z,10.45
2023-05-09T05:20:02.280Z,10.43
2023-05-09T05:24:31.633Z,10.62
2023-05-09T05:28:23.006Z,10.95
2023-05-09T05:32:52.554Z,10.99
2023-05-09T05:37:19.682Z,11.32
2023-05-09T05:41:48.579Z,11.29
2023-05-09T05:45:57.924Z,11.47
2023-05-09T05:50:29.493Z,11.63
2023-05-09T05:54:46.389Z,11.70
2023-05-09T05:58:55.673Z,11.83
2023-05-09T06:03:05.249Z,12.08
2023-05-09T06:07:23.206Z,12.18
2023-05-09T06:11:52.533Z,12.42
2023-05-09T06:16:21.599Z,12.71
2023-05-09T06:20:50.933Z,12.94
2023-05-09T06:25:19.502Z,13.06
2023-05-09T06:29:48.770Z,13.28
2023-05-09T06:34:18.052Z,13.46
2023-05-09T06:38:27.492Z,13.50
2023-05-09T06:42:56.558Z,13.84
2023-05-09T06:47:26.039Z,14.12
2023-05-09T06:51:55.610Z,14.33
2023-05-09T06:56:24.819Z,14.38
2023-05-09T07:00:55.130Z,14.69
2023-05-09T07:05:24.342Z,14.64
2023-05-09T07:09:37.930Z,14.92
2023-05-09T07:13:53.339Z,15.27
2023-05-09T07:18:22.946Z,17.11
2023-05-09T07:22:52.043Z,18.25
2023-05-09T07:27:21.063Z,18.64
2023-05-09T07:31:38.609Z,18.73
2023-05-09T07:36:07.937Z,19.28
2023-05-09T07:40:37.235Z,19.58
2023-05-09T07:45:06.814Z,20.01
2023-05-09T07:49:35.806Z,19.92
2023-05-09T07:54:05.943Z,19.83
2023-05-09T07:58:35.192Z,20.37
2023-05-09T08:03:04.676Z,20.45
2023-05-09T08:07:33.796Z,20.51
2023-05-09T08:12:04.000Z,20.58
2023-05-09T08:16:33.566Z,20.49
2023-05-09T08:21:02.917Z,20.70
2023-05-09T08:25:32.381Z,20.68
2023-05-09T08:30:02.421Z,20.63
2023-05-09T08:34:32.981Z,20.60
2023-05-09T08:38:47.215Z,20.99
2023-05-09T08:43:18.320Z,21.40
2023-05-09T08:47:47.811Z,21.26
2023-05-09T08:52:17.624Z,21.08
2023-05-09T08:56:48.968Z,21.40
2023-05-09T09:01:19.090Z,21.49
2023-05-09T09:05:48.584Z,21.55
2023-05-09T09:13:47.327Z,21.60
2023-05-09T09:17:35.590Z,21.82
2023-05-09T09:21:19.627Z,21.50
2023-05-09T09:25:07.370Z,22.17
2023-05-09T09:28:49.477Z,22.31
2023-05-09T09:32:37.858Z,22.59
2023-05-09T09:36:25.423Z,22.85
2023-05-09T09:40:13.252Z,22.43
2023-05-09T09:44:07.207Z,22.21
2023-05-09T09:47:50.116Z,22.28
2023-05-09T09:51:38.174Z,22.46
2023-05-09T09:55:16.134Z,22.58
2023-05-09T09:59:03.708Z,22.75
2023-05-09T10:03:00.624Z,22.23
2023-05-09T10:06:44.708Z,22.57
2023-05-09T10:10:33.663Z,22.80
2023-05-09T10:14:21.375Z,22.73
2023-05-09T10:18:10.255Z,22.91
2023-05-09T10:21:59.957Z,22.65
2023-05-09T10:26:20.571Z,22.58
2023-05-09T10:30:19.362Z,22.72
2023-05-09T10:34:08.117Z,22.86
2023-05-09T10:38:02.702Z,23.21
2023-05-09T10:41:49.392Z,23.51
2023-05-09T10:45:37.308Z,23.60
2023-05-09T10:49:45.152Z,24.04
2023-05-09T10:53:45.597Z,24.35
2023-05-09T10:57:38.644Z,23.89
2023-05-09T11:05:55.935Z,23.69
2023-05-09T11:10:03.963Z,23.34
2023-05-09T11:13:58.345Z,23.05
2023-05-09T11:18:26.210Z,23.26
2023-05-09T11:22:43.437Z,22.42
2023-05-09T11:26:51.750Z,23.47
2023-05-09T11:31:00.189Z,24.10
2023-05-09T11:34:50.824Z,24.01
2023-05-09T11:38:44.713Z,23.96
2023-05-09T11:42:50.312Z,24.22
2023-05-09T11:46:55.046Z,24.01
2023-05-09T11:50:51.139Z,24.03
2023-05-09T11:54:59.088Z,24.19
2023-05-09T11:59:12.069Z,23.99
2023-05-09T12:03:21.752Z,23.93
2023-05-09T12:07:10.720Z,25.43
2023-05-09T12:11:01.027Z,25.19
2023-05-09T12:14:38.324Z,24.86
2023-05-09T12:18:26.660Z,25.46
2023-05-09T12:22:16.477Z,25.51
2023-05-09T12:26:05.370Z,25.30
2023-05-09T12:30:14.852Z,25.07
2023-05-09T12:34:06.948Z,25.20
2023-05-09T12:37:59.299Z,25.48
2023-05-09T12:42:00.956Z,25.57
2023-05-09T12:46:04.076Z,25.54
2023-05-09T12:50:33.425Z,25.20
2023-05-09T12:55:05.228Z,24.54
2023-05-09T12:59:35.941Z,23.64
2023-05-09T13:03:26.385Z,23.89
2023-05-09T13:07:36.201Z,24.64
2023-05-09T13:11:25.538Z,24.65
2023-05-09T13:15:33.411Z,25.06
2023-05-09T13:19:23.583Z,24.46
2023-05-09T13:23:12.320Z,24.30
2023-05-09T13:27:20.389Z,24.21
2023-05-09T13:31:28.713Z,24.26
2023-05-09T13:35:37.046Z,24.50
2023-05-09T13:39:42.110Z,24.62
2023-05-09T13:43:30.105Z,24.69
2023-05-09T13:47:18.261Z,25.18
2023-05-09T13:51:07.520Z,25.36
2023-05-09T13:54:59.834Z,25.18
2023-05-09T13:59:21.471Z,24.77
2023-05-09T14:03:11.086Z,24.33
2023-05-09T14:07:12.728Z,24.77
2023-05-09T14:11:00.963Z,25.40
2023-05-09T14:14:49.547Z,24.98
2023-05-09T14:18:38.250Z,25.15
2023-05-09T14:22:31.660Z,25.16
2023-05-09T14:26:14.134Z,24.89
2023-05-09T14:30:05.216Z,25.32
2023-05-09T14:33:53.416Z,25.00
2023-05-09T14:37:42.102Z,24.79
2023-05-09T14:41:33.549Z,25.01
2023-05-09T14:45:23.336Z,24.64
2023-05-09T14:49:13.304Z,24.60
2023-05-09T14:53:06.595Z,24.19
2023-05-09T14:57:00.758Z,24.34
2023-05-09T15:00:53.689Z,24.11
2023-05-09T15:04:50.617Z,24.81
2023-05-09T15:08:39.683Z,25.01
2023-05-09T15:12:31.107Z,24.75
2023-05-09T15:16:26.248Z,24.77
2023-05-09T15:20:08.685Z,24.94
2023-05-09T15:23:57.557Z,24.67
2023-05-09T15:27:45.875Z,24.57
2023-05-09T15:31:35.683Z,24.67
2023-05-09T15:35:24.040Z,24.32
2023-05-09T15:39:11.884Z,24.44
2023-05-09T15:43:01.043Z,24.78
2023-05-09T15:46:46.262Z,24.62
2023-05-09T15:50:34.647Z,24.55
2023-05-09T15:54:35.637Z,24.02
2023-05-09T15:58:24.528Z,23.81
2023-05-09T16:02:14.251Z,23.68
2023-05-09T16:06:02.416Z,23.94
2023-05-09T16:09:16.571Z,23.60
2023-05-09T16:13:03.797Z,23.70
2023-05-09T16:16:51.721Z,23.49
2023-05-09T16:20:35.582Z,23.44
2023-05-09T16:24:12.858Z,24.18
2023-05-09T16:28:01.528Z,23.63
2023-05-09T16:31:43.068Z,23.65
2023-05-09T16:35:30.949Z,23.59
2023-05-09T16:39:20.478Z,23.60
2023-05-09T16:43:09.605Z,23.16
2023-05-09T16:47:05.410Z,22.43
2023-05-09T16:50:53.763Z,22.65
2023-05-09T16:54:34.481Z,22.56
2023-05-09T16:58:23.233Z,22.12
2023-05-09T17:02:12.816Z,22.11
2023-05-09T17:06:05.631Z,22.11
2023-05-09T17:09:48.994Z,21.76
2023-05-09T17:13:36.898Z,21.61
2023-05-09T17:17:05.513Z,21.44
2023-05-09T17:20:58.523Z,21.14
2023-05-09T17:24:22.881Z,20.86
2023-05-09T17:28:21.361Z,20.63
2023-05-09T17:31:59.353Z,20.36
2023-05-09T17:35:35.561Z,20.27
2023-05-09T17:39:15.959Z,20.02
2023-05-09T17:43:03.730Z,19.77
2023-05-09T17:46:32.650Z,19.71
2023-05-09T17:50:20.823Z,19.28
2023-05-09T17:53:49.506Z,19.09
2023-05-09T17:57:37.724Z,18.98
2023-05-09T18:01:12.511Z,18.83
2023-05-09T18:04:54.078Z,18.72
2023-05-09T18:08:32.509Z,18.61
2023-05-09T18:12:03.974Z,18.56
2023-05-09T18:16:03.447Z,18.28
2023-05-09T18:19:57.511Z,18.20
2023-05-09T18:24:01.097Z,18.04
2023-05-09T18:27:53.690Z,17.91
2023-05-09T18:31:24.858Z,17.75
2023-05-09T18:34:53.100Z,17.68
2023-05-09T18:38:42.209Z,17.49
2023-05-09T18:42:05.699Z,17.33
2023-05-09T18:45:54.426Z,17.21
2023-05-09T18:49:33.565Z,17.07
2023-05-09T18:53:04.935Z,16.95
2023-05-09T18:56:53.265Z,16.86
2023-05-09T19:00:35.715Z,16.73
2023-05-09T19:04:24.752Z,16.51
2023-05-09T19:07:52.433Z,16.40
2023-05-09T19:11:35.936Z,16.40
2023-05-09T19:15:26.239Z,16.34
2023-05-09T19:19:17.729Z,16.25
2023-05-09T19:23:10.626Z,16.07
2023-05-09T19:26:58.930Z,15.95
2023-05-09T19:31:10.401Z,15.94
2023-05-09T19:34:58.161Z,15.83
2023-05-09T19:38:31.716Z,15.90
2023-05-09T19:42:00.965Z,15.76
2023-05-09T19:45:36.797Z,15.84
2023-05-09T19:49:19.207Z,15.83
2023-05-09T19:52:42.382Z,15.77
2023-05-09T19:56:13.915Z,15.72
2023-05-09T19:59:55.350Z,15.70
2023-05-09T20:03:24.671Z,15.67
2023-05-09T20:07:12.755Z,15.56
2023-05-09T20:11:00.578Z,15.49
2023-05-09T20:14:30.090Z,15.51
2023-05-09T20:17:45.819Z,15.43
2023-05-09T20:21:11.931Z,15.38
2023-05-09T20:25:03.186Z,15.32
2023-05-09T20:28:45.472Z,15.23
2023-05-09T20:32:24.853Z,15.10
2023-05-09T20:35:57.408Z,15.11
2023-05-09T20:39:13.333Z,15.13
2023-05-09T20:43:07.195Z,15.05
2023-05-09T20:46:33.226Z,15.00
2023-05-09T20:50:14.404Z,15.02
2023-05-09T20:54:09.382Z,14.99
2023-05-09T20:57:59.475Z,14.89
2023-05-09T21:01:47.150Z,14.84
2023-05-09T21:05:29.566Z,14.88
2023-05-09T21:09:12.431Z,14.74
2023-05-09T21:12:49.703Z,14.66
2023-05-09T21:16:29.365Z,14.69
2023-05-09T21:19:52.762Z,14.66
2023-05-09T21:23:41.063Z,14.71
2023-05-09T21:27:29.086Z,14.63
2023-05-09T21:31:17.906Z,14.55
2023-05-09T21:35:06.353Z,14.62
2023-05-09T21:38:37.389Z,14.55
2023-05-09T21:42:19.591Z,14.56
2023-05-09T21:45:35.520Z,14.45
2023-05-09T21:48:45.561Z,14.49
2023-05-09T21:52:24.695Z,14.47
2023-05-09T21:56:12.909Z,14.41
2023-05-09T21:59:52.619Z,14.32
2023-05-09T22:03:11.351Z,14.29
2023-05-09T22:07:00.816Z,14.30
2023-05-09T22:10:07.355Z,14.31
2023-05-09T22:13:48.184Z,14.30
2023-05-09T22:17:26.689Z,14.25
2023-05-09T22:21:05.291Z,14.11
2023-05-09T22:24:18.866Z,14.08
2023-05-09T22:27:56.064Z,14.10
2023-05-09T22:31:41.740Z,13.99
2023-05-09T22:34:32.179Z,13.99
2023-05-09T22:37:54.560Z,14.01
2023-05-09T22:41:24.639Z,13.95
2023-05-09T22:44:56.311Z,13.97
2023-05-09T22:48:33.253Z,13.84
2023-05-09T22:52:21.255Z,13.77
2023-05-09T22:56:02.312Z,13.65
2023-05-09T22:59:21.529Z,13.61
2023-05-09T23:02:50.360Z,13.60
2023-05-09T23:05:50.682Z,13.58
2023-05-09T23:08:50.708Z,13.60
2023-05-09T23:11:34.080Z,13.49
2023-05-09T23:15:21.557Z,13.56
2023-05-09T23:18:29.435Z,13.41
2023-05-09T23:21:21.349Z,13.44
2023-05-09T23:24:51.456Z,13.43
2023-05-09T23:28:39.618Z,13.38
2023-05-09T23:32:14.703Z,13.32
2023-05-09T23:36:01.688Z,13.24
2023-05-09T23:39:05.287Z,13.23
2023-05-09T23:42:53.821Z,13.25
2023-05-09T23:45:45.677Z,13.29
2023-05-09T23:49:27.691Z,13.26
2023-05-09T23:52:29.735Z,13.18
2023-05-09T23:55:56.838Z,13.17
2023-05-09T23:58:46.951Z,13.11
